CheckWX is a tool to help pilots better visualize weather data.  It is not intended as a substitute for an official pre-flight weather briefing.

17:12:45 UTC

LFPB TAF
Paris-Le Bourget Airport
Paris, France
TAF LFPB 081700Z 0818/0918 32010KT CAVOK TEMPO 0823/0903 VRB02KT BECMG 0903/0905 22005KT

Jul-8@
18:00 UTC

Jul-8 @ 18:00 UTC

Jul-9@
03:00 UTC

Jul-9 @ 03:00 UTC

TAF LFPB 081700Z 0818/0918 32010KT CAVOK

Expired

Wind
  • 320° at 10 KTS
Conditions
No significant weather
Cloud Levels
  • No significant clouds

Jul-8@
23:00 UTC

Jul-8 @ 23:00 UTC

Jul-9@
03:00 UTC

Jul-9 @ 03:00 UTC

TEMPO 0823/0903 VRB02KT

Expired

Wind
  • Variable at 2 KTS
Cloud Levels

Jul-9@
03:00 UTC

Jul-9 @ 03:00 UTC

Jul-9@
18:00 UTC

Jul-9 @ 18:00 UTC

BECMG 0903/0905 22005KT

Becoming

Becoming Conditions expected by Thu, Jul 9, 2020 @ 05:00 UTC

Wind
  • 220° at 5 KTS
Conditions
No significant weather
Cloud Levels
  • No significant clouds